Aviation Digital Data Service (ADDS)

Output produced by METARs form (1541 UTC 20 May 2018)
found at http://aviationweather.gov/adds/metars/
 
KAOO 201253Z 2013/2112 25005KT P6SM VCSH SCT020 BKN070 
     TEMPO 2013/2015 3SM SHRA OVC015 
     FM201500 30010KT P6SM BKN050 
     FM210000 33005KT P6SM SCT100 
     FM210600 VRB02KT 5SM BR VCFG SCT100